Time;durP1;ratioP1;P1;durP2;ratioP2;P2;SDS_P1;SDS_P2;PMS_P1;PMS_P2;Temp;Humidity;BMP_temperature;BMP_pressure;BME280_temperature;BME280_humidity;BME280_pressure;Samples;Min_cycle;Max_cycle;Signal;HPM_P1;HPM_P2
2023/06/05 00:00:17;;;;;;;15.27;6.15;;;;;;;15.78;100.00;98080.13;5133972;27;20151;-76
2023/06/05 00:02:43;;;;;;;11.68;6.30;;;;;;;15.80;100.00;98083.56;5133587;27;20034;-75
2023/06/05 00:05:09;;;;;;;14.25;7.13;;;;;;;15.78;100.00;98077.44;5133763;27;20027;-75
2023/06/05 00:07:37;;;;;;;10.90;6.15;;;;;;;15.79;100.00;98092.63;5116456;27;20383;-76
2023/06/05 00:10:03;;;;;;;12.90;6.47;;;;;;;15.80;100.00;98087.13;5133663;27;20443;-75
2023/06/05 00:12:29;;;;;;;13.82;6.60;;;;;;;15.80;100.00;98081.75;5116371;27;20031;-75
2023/06/05 00:14:55;;;;;;;11.18;6.10;;;;;;;15.82;100.00;98084.31;5134639;27;20083;-75
2023/06/05 00:17:20;;;;;;;11.40;6.32;;;;;;;15.77;100.00;98073.88;5127674;27;20414;-75
2023/06/05 00:19:46;;;;;;;14.25;6.22;;;;;;;15.79;100.00;98065.66;5133003;27;20041;-75
2023/06/05 00:22:11;;;;;;;11.85;5.97;;;;;;;15.78;100.00;98061.25;5133563;27;20612;-76
2023/06/05 00:24:37;;;;;;;12.07;5.85;;;;;;;15.73;100.00;98053.50;5133255;27;20026;-76
2023/06/05 00:27:02;;;;;;;11.40;6.78;;;;;;;15.77;100.00;98070.31;5134728;27;20019;-76
2023/06/05 00:29:28;;;;;;;17.60;7.13;;;;;;;15.76;100.00;98063.19;5133460;27;20019;-76
2023/06/05 00:31:53;;;;;;;13.30;6.47;;;;;;;15.75;100.00;98069.56;5116339;27;20027;-76
2023/06/05 00:34:19;;;;;;;10.57;6.40;;;;;;;15.75;100.00;98075.81;5133246;27;20030;-75
2023/06/05 00:36:45;;;;;;;9.88;6.28;;;;;;;15.76;100.00;98085.63;5133860;27;20023;-75
2023/06/05 00:39:10;;;;;;;10.98;6.30;;;;;;;15.75;100.00;98078.50;5132369;27;20042;-75
2023/06/05 00:41:41;;;;;;;14.15;7.15;;;;;;;15.69;100.00;98073.56;5134333;27;20469;-75
2023/06/05 00:44:07;;;;;;;9.43;5.82;;;;;;;15.77;100.00;98079.28;5132691;27;20083;-75
2023/06/05 00:46:33;;;;;;;9.48;5.30;;;;;;;15.76;100.00;98066.75;5115574;27;20492;-75
2023/06/05 00:48:59;;;;;;;8.88;5.78;;;;;;;15.77;100.00;98057.69;5132598;27;20114;-75
2023/06/05 00:51:25;;;;;;;9.50;5.15;;;;;;;15.74;100.00;98055.22;5132883;27;20069;-75
2023/06/05 00:53:50;;;;;;;11.85;5.53;;;;;;;15.67;100.00;98044.03;5133934;27;20409;-75
2023/06/05 00:56:20;;;;;;;11.05;5.22;;;;;;;15.70;100.00;98046.50;5132663;27;20526;-75
2023/06/05 00:58:46;;;;;;;9.02;5.05;;;;;;;15.74;100.00;98041.72;5132624;27;20105;-75
2023/06/05 01:01:12;;;;;;;10.48;5.20;;;;;;;15.74;100.00;98049.81;5132250;27;20084;-75
2023/06/05 01:03:39;;;;;;;13.23;7.05;;;;;;;15.71;100.00;98050.06;5132667;27;20015;-75
2023/06/05 01:06:05;;;;;;;13.82;6.68;;;;;;;15.76;100.00;98052.41;5115458;27;20037;-75
2023/06/05 01:08:41;;;;;;;11.30;6.25;;;;;;;15.79;100.00;98044.94;5132779;27;20101;-75
2023/06/05 01:11:40;;;;;;;13.05;6.13;;;;;;;15.78;100.00;98040.50;5122965;27;20024;-75
2023/06/05 01:14:20;;;;;;;12.20;5.70;;;;;;;15.71;100.00;98023.94;5113090;28;20031;-75
2023/06/05 01:16:48;;;;;;;13.60;5.85;;;;;;;15.68;100.00;98024.19;5127606;27;20050;-76
2023/06/05 01:19:14;;;;;;;14.77;6.20;;;;;;;15.64;100.00;98019.97;5133238;27;20038;-76
2023/06/05 01:21:40;;;;;;;10.23;6.32;;;;;;;15.64;100.00;98017.28;5132396;27;20589;-76
2023/06/05 01:24:06;;;;;;;13.60;6.32;;;;;;;15.59;100.00;98005.13;5131858;27;20034;-74
2023/06/05 01:26:54;;;;;;;17.48;6.40;;;;;;;15.62;100.00;98007.59;5132162;27;20023;-75
2023/06/05 01:29:43;;;;;;;20.08;6.60;;;;;;;15.67;100.00;98010.78;5132876;27;20023;-75
2023/06/05 01:32:16;;;;;;;12.63;5.80;;;;;;;15.68;100.00;98013.38;5131463;27;20459;-75
2023/06/05 01:34:43;;;;;;;9.35;5.20;;;;;;;15.68;100.00;98001.72;5114887;27;20542;-76
2023/06/05 01:37:12;;;;;;;9.50;5.22;;;;;;;15.59;100.00;97991.63;5131911;27;20099;-76
2023/06/05 01:39:38;;;;;;;7.07;4.78;;;;;;;15.56;100.00;98003.53;5114824;27;20362;-76
2023/06/05 01:42:04;;;;;;;7.95;4.82;;;;;;;15.61;100.00;98001.34;5131723;27;20043;-76
2023/06/05 01:44:30;;;;;;;8.75;5.18;;;;;;;15.63;100.00;98002.06;5114847;27;20468;-76
2023/06/05 01:46:56;;;;;;;9.00;5.03;;;;;;;15.60;100.00;97998.72;5131862;27;20031;-76
2023/06/05 01:49:22;;;;;;;8.82;5.38;;;;;;;15.59;100.00;97994.34;5130733;27;20470;-75
2023/06/05 01:51:48;;;;;;;8.43;5.55;;;;;;;15.55;100.00;97996.41;5131680;27;20474;-75
2023/06/05 01:54:15;;;;;;;8.73;5.53;;;;;;;15.54;100.00;98000.06;5131410;27;20027;-75
2023/06/05 01:56:42;;;;;;;8.85;5.70;;;;;;;15.59;100.00;98003.28;5131575;27;20026;-75
2023/06/05 01:59:08;;;;;;;8.50;5.60;;;;;;;15.60;100.00;98007.69;5132989;27;20023;-75
2023/06/05 02:01:34;;;;;;;9.85;5.82;;;;;;;15.58;100.00;97990.78;5131189;27;20050;-74
2023/06/05 02:04:04;;;;;;;10.75;5.95;;;;;;;15.56;100.00;97991.88;5132855;27;20035;-75
2023/06/05 02:06:41;;;;;;;9.35;5.78;;;;;;;15.52;100.00;97982.28;5114683;27;20027;-75
2023/06/05 02:09:08;;;;;;;8.85;5.55;;;;;;;15.54;100.00;97983.88;5131303;27;20523;-75
2023/06/05 02:11:36;;;;;;;9.77;5.40;;;;;;;15.55;100.00;97980.22;5114018;27;20084;-76
2023/06/05 02:14:01;;;;;;;13.82;6.15;;;;;;;15.50;100.00;97978.84;5131509;27;20023;-75
2023/06/05 02:16:27;;;;;;;11.40;7.13;;;;;;;15.50;100.00;97987.81;5130773;27;20572;-74
2023/06/05 02:18:52;;;;;;;17.23;11.55;;;;;;;15.51;100.00;97991.34;5132416;27;20383;-76
2023/06/05 02:21:18;;;;;;;13.50;6.88;;;;;;;15.43;100.00;97999.97;5131075;27;20031;-76
2023/06/05 02:23:46;;;;;;;13.20;7.15;;;;;;;15.48;100.00;97999.66;5131169;27;20023;-75
2023/06/05 02:26:12;;;;;;;13.73;6.72;;;;;;;15.50;100.00;98003.13;5114279;27;20027;-76
2023/06/05 02:28:37;;;;;;;12.00;6.90;;;;;;;15.60;100.00;98004.13;5132047;27;20068;-76
2023/06/05 02:31:04;;;;;;;15.32;7.25;;;;;;;15.61;100.00;97998.63;5126374;27;20440;-76
2023/06/05 02:33:30;;;;;;;10.27;7.13;;;;;;;15.68;100.00;98007.13;5130048;27;20037;-76
2023/06/05 02:35:56;;;;;;;11.63;6.60;;;;;;;15.68;100.00;97997.22;5132126;27;20444;-75
2023/06/05 02:38:23;;;;;;;11.13;6.90;;;;;;;15.67;100.00;97997.31;5132016;27;20470;-75
2023/06/05 02:40:48;;;;;;;13.32;6.47;;;;;;;15.73;100.00;98000.41;5113520;27;20030;-75
2023/06/05 02:43:16;;;;;;;12.70;6.25;;;;;;;15.64;100.00;97990.31;5131960;27;20030;-75
2023/06/05 02:45:41;;;;;;;15.55;6.68;;;;;;;15.70;100.00;97995.25;5130777;27;20023;-77
2023/06/05 02:48:07;;;;;;;15.18;7.05;;;;;;;15.72;100.00;97992.41;5113574;28;20057;-75
2023/06/05 02:50:32;;;;;;;9.10;6.22;;;;;;;15.73;100.00;97997.72;5131839;27;20062;-76
2023/06/05 02:52:58;;;;;;;12.32;6.00;;;;;;;15.68;100.00;97997.22;5130770;27;20118;-76
2023/06/05 02:55:23;;;;;;;13.50;6.60;;;;;;;15.67;100.00;98008.09;5131882;27;20121;-76
2023/06/05 02:57:49;;;;;;;11.02;6.13;;;;;;;15.65;100.00;98004.66;5130422;27;20164;-76
2023/06/05 03:00:18;;;;;;;11.88;6.85;;;;;;;15.66;100.00;98018.00;5130612;27;20517;-74
2023/06/05 03:02:55;;;;;;;16.05;6.80;;;;;;;15.75;100.00;98012.94;5130157;28;20031;-75
2023/06/05 03:05:27;;;;;;;15.30;6.38;;;;;;;15.70;100.00;98010.56;5130773;27;20114;-75
2023/06/05 03:07:53;;;;;;;15.20;6.45;;;;;;;15.68;100.00;98018.78;5114167;28;20470;-76
2023/06/05 03:10:20;;;;;;;13.45;6.97;;;;;;;15.67;100.00;98011.66;5131343;27;20027;-75
2023/06/05 03:12:46;;;;;;;14.13;5.57;;;;;;;15.62;100.00;98021.94;5130270;27;20477;-75
2023/06/05 03:15:12;;;;;;;10.35;5.50;;;;;;;15.54;100.00;98024.31;5130493;27;20030;-75
2023/06/05 03:17:37;;;;;;;17.98;7.05;;;;;;;15.55;100.00;98034.16;5131343;27;20047;-74
2023/06/05 03:20:04;;;;;;;10.50;5.88;;;;;;;15.55;100.00;98027.88;5113026;28;20027;-76
2023/06/05 03:22:30;;;;;;;9.27;5.25;;;;;;;15.55;100.00;98038.69;5113065;28;20027;-75
2023/06/05 03:24:55;;;;;;;12.55;5.32;;;;;;;15.55;100.00;98041.38;5130081;27;20023;-76
2023/06/05 03:27:21;;;;;;;11.45;5.20;;;;;;;15.58;100.00;98039.31;5130539;27;20102;-77
2023/06/05 03:29:46;;;;;;;6.75;4.40;;;;;;;15.66;100.00;98036.91;5131368;27;20056;-77
2023/06/05 03:32:12;;;;;;;8.68;4.88;;;;;;;15.59;100.00;98037.47;5130444;28;20019;-78
2023/06/05 03:34:38;;;;;;;8.55;5.13;;;;;;;15.50;100.00;98025.56;5130271;28;20539;-76
2023/06/05 03:37:04;;;;;;;7.28;4.50;;;;;;;15.49;100.00;98034.59;5129962;27;20027;-80
2023/06/05 03:39:29;;;;;;;10.02;5.00;;;;;;;15.49;100.00;98047.22;5122390;28;20036;-78
2023/06/05 03:41:55;;;;;;;10.43;5.13;;;;;;;15.57;100.00;98060.97;5129462;27;20031;-78
2023/06/05 03:44:20;;;;;;;15.48;5.55;;;;;;;15.63;100.00;98056.00;5130126;28;20397;-79
2023/06/05 03:46:46;;;;;;;13.45;6.50;;;;;;;15.63;100.00;98047.03;5120253;27;20031;-79
2023/06/05 03:49:12;;;;;;;13.07;6.40;;;;;;;15.72;100.00;98052.63;5124485;27;20038;-77
2023/06/05 03:51:39;;;;;;;16.08;5.82;;;;;;;15.79;100.00;98050.31;5128708;27;20034;-78
2023/06/05 03:54:05;;;;;;;13.25;7.40;;;;;;;15.87;100.00;98044.38;5113087;28;20028;-78
2023/06/05 03:56:34;;;;;;;11.85;5.70;;;;;;;15.94;100.00;98030.28;5130152;27;20497;-79
2023/06/05 03:59:08;;;;;;;14.18;5.38;;;;;;;15.98;100.00;98031.78;5125521;28;20024;-79
2023/06/05 04:01:37;;;;;;;8.07;5.35;;;;;;;15.95;100.00;98020.34;5110819;28;20031;-80
2023/06/05 04:04:05;;;;;;;7.63;4.55;;;;;;;15.86;100.00;98018.34;5113068;28;20027;-78
2023/06/05 04:06:32;;;;;;;11.07;5.63;;;;;;;15.91;100.00;98022.44;5130073;27;20110;-80
2023/06/05 04:08:58;;;;;;;10.63;5.47;;;;;;;15.93;100.00;98016.94;5113230;27;20020;-79
2023/06/05 04:11:27;;;;;;;11.77;7.07;;;;;;;15.98;100.00;98009.34;5108518;28;20604;-80
2023/06/05 04:13:53;;;;;;;46.50;26.35;;;;;;;15.94;100.00;98014.09;5125872;27;20034;-77
2023/06/05 04:16:19;;;;;;;15.05;8.65;;;;;;;16.08;100.00;98015.75;5115986;27;20035;-79
2023/06/05 04:18:45;;;;;;;15.27;6.10;;;;;;;16.14;100.00;98018.84;5133445;27;20088;-77
2023/06/05 04:21:10;;;;;;;10.05;6.05;;;;;;;16.29;100.00;98014.09;5115970;27;20026;-79
2023/06/05 04:23:36;;;;;;;18.35;5.93;;;;;;;16.34;100.00;98009.19;5127765;27;20031;-81
2023/06/05 04:26:02;;;;;;;10.35;5.78;;;;;;;16.39;100.00;98007.00;5132294;27;20023;-79
2023/06/05 04:28:29;;;;;;;12.38;5.88;;;;;;;16.39;100.00;97998.03;5124214;27;20379;-80
2023/06/05 04:30:58;;;;;;;27.85;8.43;;;;;;;16.51;100.00;98003.34;5123911;27;20035;-77
2023/06/05 04:33:23;;;;;;;18.48;7.15;;;;;;;16.49;100.00;97999.88;5116150;27;20023;-77
2023/06/05 04:35:49;;;;;;;25.50;10.75;;;;;;;16.45;100.00;97997.56;5117316;27;20503;-77
2023/06/05 04:38:15;;;;;;;10.57;6.15;;;;;;;16.25;100.00;97993.72;5113734;28;20027;-77
2023/06/05 04:40:40;;;;;;;11.35;6.50;;;;;;;16.18;100.00;97989.78;5130415;27;20030;-78
2023/06/05 04:43:08;;;;;;;19.00;7.30;;;;;;;16.19;100.00;98002.28;5129147;27;20498;-77
2023/06/05 04:45:34;;;;;;;16.20;6.80;;;;;;;16.20;100.00;97995.91;5100991;27;20031;-78
2023/06/05 04:48:00;;;;;;;20.63;9.07;;;;;;;16.35;100.00;98007.34;5104583;28;20042;-78
2023/06/05 04:50:27;;;;;;;20.02;8.27;;;;;;;16.41;100.00;98001.47;5095215;28;20034;-78
2023/06/05 04:52:53;;;;;;;16.08;7.45;;;;;;;16.50;100.00;98007.03;5128230;27;20019;-77
2023/06/05 04:55:19;;;;;;;15.55;7.10;;;;;;;16.46;100.00;97994.72;5115752;27;20034;-76
2023/06/05 04:57:46;;;;;;;13.68;6.97;;;;;;;16.60;100.00;97981.06;5102591;28;20110;-78
2023/06/05 05:00:12;;;;;;;11.13;6.30;;;;;;;16.75;100.00;97978.97;5111850;27;20463;-78
2023/06/05 05:02:38;;;;;;;17.38;8.80;;;;;;;16.88;100.00;97973.44;5132892;27;20027;-77
2023/06/05 05:05:04;;;;;;;16.92;7.60;;;;;;;16.99;100.00;97968.88;5132556;27;20411;-78
2023/06/05 05:07:29;;;;;;;16.63;7.53;;;;;;;17.12;100.00;97966.91;5132835;27;20027;-77
2023/06/05 05:09:55;;;;;;;11.95;6.50;;;;;;;17.16;100.00;97962.13;5126741;27;20092;-79
2023/06/05 05:12:21;;;;;;;17.70;10.48;;;;;;;17.37;100.00;97979.28;5124769;27;20027;-77
2023/06/05 05:14:46;;;;;;;12.40;6.65;;;;;;;17.54;100.00;97970.59;5107489;28;20042;-80
2023/06/05 05:17:14;;;;;;;12.15;6.90;;;;;;;17.81;100.00;97962.91;5111260;27;20112;-79
2023/06/05 05:19:40;;;;;;;17.88;6.72;;;;;;;18.10;100.00;97959.56;5132121;27;20028;-79
2023/06/05 05:22:06;;;;;;;13.88;7.68;;;;;;;18.21;100.00;97959.53;5132306;27;20488;-79
2023/06/05 05:24:32;;;;;;;20.73;9.40;;;;;;;18.58;100.00;97960.75;5121521;27;20103;-79
2023/06/05 05:26:57;;;;;;;25.98;11.63;;;;;;;18.99;100.00;97948.13;5130070;27;20497;-79
2023/06/05 05:29:23;;;;;;;16.08;7.95;;;;;;;19.42;100.00;97925.13;5101652;28;20027;-78
2023/06/05 05:31:50;;;;;;;15.88;6.88;;;;;;;19.73;100.00;97925.00;5098936;28;20028;-79
2023/06/05 05:34:16;;;;;;;11.10;6.00;;;;;;;19.97;100.00;97910.00;5119983;27;20423;-79
2023/06/05 05:36:42;;;;;;;10.57;6.78;;;;;;;19.81;100.00;97915.16;5133445;27;20035;-79
2023/06/05 05:39:07;;;;;;;16.88;6.80;;;;;;;19.91;100.00;97905.16;5114781;27;20561;-79
2023/06/05 05:41:34;;;;;;;9.80;6.28;;;;;;;19.55;100.00;97911.31;5114711;27;20102;-80
2023/06/05 05:43:59;;;;;;;9.48;5.68;;;;;;;19.44;100.00;97906.84;5129620;27;20027;-79
2023/06/05 05:46:25;;;;;;;18.17;6.85;;;;;;;19.54;100.00;97906.88;5101367;28;20039;-77
2023/06/05 05:48:51;;;;;;;8.82;5.22;;;;;;;19.63;100.00;97911.44;5127902;27;20076;-78
2023/06/05 05:51:17;;;;;;;10.95;5.65;;;;;;;19.44;100.00;97896.00;5114706;27;20411;-78
2023/06/05 05:53:42;;;;;;;13.07;5.75;;;;;;;19.58;100.00;97891.16;5099130;28;20038;-77
2023/06/05 05:56:08;;;;;;;10.52;5.70;;;;;;;19.79;100.00;97906.31;5112910;27;20483;-79
2023/06/05 05:58:33;;;;;;;9.43;6.47;;;;;;;19.87;100.00;97892.84;5127545;27;20038;-81
2023/06/05 06:00:59;;;;;;;10.48;6.22;;;;;;;19.84;100.00;97904.00;5131836;27;20041;-80
2023/06/05 06:03:28;;;;;;;11.38;5.93;;;;;;;19.77;100.00;97913.75;5114377;27;20035;-80
2023/06/05 06:05:54;;;;;;;14.05;8.02;;;;;;;20.02;100.00;97915.03;5106007;28;20035;-81
2023/06/05 06:08:20;;;;;;;11.13;6.15;;;;;;;20.47;100.00;97907.09;5118314;27;20023;-81
2023/06/05 06:10:46;;;;;;;8.70;5.35;;;;;;;20.30;100.00;97916.84;5125937;27;20019;-80
2023/06/05 06:13:13;;;;;;;12.60;5.78;;;;;;;21.47;100.00;97899.91;5116758;27;20023;-81
2023/06/05 06:15:39;;;;;;;9.23;5.82;;;;;;;23.34;100.00;97892.00;5121257;27;20058;-79
2023/06/05 06:18:05;;;;;;;15.32;6.20;;;;;;;24.02;100.00;97884.47;5103250;28;20043;-79
2023/06/05 06:20:33;;;;;;;14.85;6.68;;;;;;;24.14;100.00;97880.41;5087989;28;20084;-80
2023/06/05 06:22:59;;;;;;;7.82;5.45;;;;;;;25.13;100.00;97886.38;5115882;27;20058;-80
2023/06/05 06:25:28;;;;;;;8.65;6.25;;;;;;;26.12;100.00;97875.44;5110862;28;20030;-80
2023/06/05 06:27:55;;;;;;;8.82;5.93;;;;;;;26.46;100.00;97872.25;5111156;28;20076;-80
2023/06/05 06:30:21;;;;;;;8.15;6.43;;;;;;;26.67;94.64;97850.44;5093525;28;20406;-79
2023/06/05 06:32:47;;;;;;;14.43;5.90;;;;;;;25.24;100.00;97853.09;5131177;27;20031;-80
2023/06/05 06:35:13;;;;;;;12.68;5.90;;;;;;;24.51;100.00;97861.56;5129201;27;20025;-79
2023/06/05 06:37:40;;;;;;;11.77;5.47;;;;;;;24.24;100.00;97875.63;5106775;27;20548;-80
2023/06/05 06:40:14;;;;;;;6.97;5.43;;;;;;;23.66;100.00;97864.78;5096403;28;20035;-78
2023/06/05 06:42:42;;;;;;;12.73;5.57;;;;;;;23.72;100.00;97859.50;5124458;27;20028;-80
2023/06/05 06:45:10;;;;;;;7.28;5.03;;;;;;;24.48;100.00;97861.03;5093322;28;20027;-79
2023/06/05 06:47:35;;;;;;;7.50;5.05;;;;;;;25.17;100.00;97841.13;5101064;28;20114;-81
2023/06/05 06:50:04;;;;;;;9.57;5.10;;;;;;;25.94;100.00;97836.53;5093468;28;20463;-80
2023/06/05 06:52:30;;;;;;;10.30;5.22;;;;;;;25.93;100.00;97837.59;5130546;27;20019;-81
2023/06/05 06:54:56;;;;;;;10.70;5.43;;;;;;;26.88;100.00;97831.34;5098052;28;20058;-80
2023/06/05 06:57:21;;;;;;;9.05;5.03;;;;;;;28.31;88.62;97824.91;5126245;27;20096;-80
2023/06/05 06:59:48;;;;;;;9.45;5.95;;;;;;;28.24;85.18;97805.59;5124907;28;20454;-80
2023/06/05 07:02:19;;;;;;;12.55;5.95;;;;;;;27.93;89.89;97816.13;5109812;28;20031;-80
2023/06/05 07:04:45;;;;;;;11.20;5.70;;;;;;;29.74;77.66;97814.91;5124735;27;20122;-81
2023/06/05 07:07:12;;;;;;;11.43;6.28;;;;;;;30.10;74.09;97798.84;5113072;28;20028;-79
2023/06/05 07:09:42;;;;;;;8.52;5.90;;;;;;;29.29;76.51;97783.38;5128320;27;20027;-80
2023/06/05 07:12:18;;;;;;;12.45;6.40;;;;;;;28.15;83.90;97778.47;5105410;28;20088;-80
2023/06/05 07:14:44;;;;;;;10.15;6.20;;;;;;;28.32;84.92;97786.19;5113062;28;20023;-80
2023/06/05 07:17:10;;;;;;;71.72;47.90;;;;;;;27.60;90.18;97801.16;5131703;27;20066;-80
2023/06/05 07:19:36;;;;;;;16.98;7.18;;;;;;;27.33;90.62;97784.38;5130346;28;20102;-80
2023/06/05 07:22:04;;;;;;;11.40;6.93;;;;;;;27.41;92.58;97791.63;5130558;27;20110;-79
2023/06/05 07:24:30;;;;;;;10.18;6.28;;;;;;;27.84;89.10;97781.53;5112748;28;20059;-80
2023/06/05 07:26:57;;;;;;;12.13;6.65;;;;;;;28.89;83.76;97796.09;5101751;28;20050;-79
2023/06/05 07:29:23;;;;;;;16.05;6.20;;;;;;;29.31;82.84;97786.78;5125705;27;20019;-79
2023/06/05 07:31:50;;;;;;;15.35;9.00;;;;;;;29.48;80.41;97788.94;5129728;27;20027;-78
2023/06/05 07:34:18;;;;;;;10.98;7.18;;;;;;;29.47;79.12;97781.72;5107209;28;20493;-79
2023/06/05 07:36:45;;;;;;;8.65;6.70;;;;;;;28.78;81.19;97774.66;5113197;28;20030;-78
2023/06/05 07:39:11;;;;;;;11.00;6.95;;;;;;;29.21;80.52;97783.53;5116922;27;20019;-79
2023/06/05 07:41:38;;;;;;;11.38;6.78;;;;;;;29.98;78.66;97795.00;5111367;28;20024;-78
2023/06/05 07:44:03;;;;;;;11.02;6.97;;;;;;;29.56;78.71;97785.16;5101670;28;20030;-78
2023/06/05 07:46:29;;;;;;;14.23;6.68;;;;;;;29.97;77.65;97790.53;5110036;28;20024;-78
2023/06/05 07:48:54;;;;;;;24.95;8.90;;;;;;;30.31;76.00;97790.34;5113529;28;20059;-78
2023/06/05 07:51:20;;;;;;;10.63;6.25;;;;;;;30.93;71.19;97784.28;5113908;28;20043;-79
2023/06/05 07:53:46;;;;;;;14.98;7.07;;;;;;;30.58;71.04;97774.59;5113457;28;20024;-78
2023/06/05 07:56:16;;;;;;;13.23;6.60;;;;;;;30.48;76.08;97785.25;5126709;27;20019;-79
2023/06/05 07:58:46;;;;;;;15.70;6.93;;;;;;;30.76;73.13;97774.78;5133946;27;20023;-78
2023/06/05 08:01:12;;;;;;;12.13;6.82;;;;;;;30.37;76.03;97783.94;5134093;27;20422;-78
2023/06/05 08:03:37;;;;;;;9.27;6.53;;;;;;;30.53;74.78;97774.41;5116940;27;20023;-78
2023/06/05 08:06:03;;;;;;;8.63;6.32;;;;;;;30.04;77.79;97763.81;5133916;27;20027;-78
2023/06/05 08:08:29;;;;;;;11.40;8.07;;;;;;;30.78;72.86;97771.81;5133923;27;20466;-78
2023/06/05 08:10:55;;;;;;;11.90;6.90;;;;;;;30.57;74.41;97776.53;5116991;27;20026;-79
2023/06/05 08:13:21;;;;;;;12.15;6.82;;;;;;;29.98;76.57;97761.91;5133858;27;20019;-79
2023/06/05 08:15:46;;;;;;;8.75;5.90;;;;;;;30.40;74.48;97779.94;5134918;27;20533;-78
2023/06/05 08:18:12;;;;;;;11.98;6.78;;;;;;;30.54;73.57;97760.41;5112541;28;20083;-79
2023/06/05 08:20:37;;;;;;;16.65;6.68;;;;;;;30.84;71.97;97773.69;5121915;27;20062;-79
2023/06/05 08:23:05;;;;;;;18.70;6.53;;;;;;;31.33;66.87;97762.88;5134467;27;20035;-79
2023/06/05 08:25:33;;;;;;;19.95;6.63;;;;;;;31.88;63.62;97758.50;5127537;27;20048;-78
2023/06/05 08:27:58;;;;;;;10.35;6.20;;;;;;;30.23;65.88;97742.78;5112768;28;20157;-78
2023/06/05 08:30:24;;;;;;;16.38;6.03;;;;;;;30.04;73.70;97755.53;5121281;27;20058;-78
2023/06/05 08:32:52;;;;;;;9.30;6.30;;;;;;;30.16;74.35;97762.09;5121221;27;20031;-78
2023/06/05 08:35:18;;;;;;;13.63;5.85;;;;;;;30.03;75.16;97759.34;5116123;27;20061;-79
2023/06/05 08:37:46;;;;;;;12.93;6.07;;;;;;;29.36;81.03;97754.78;5132375;27;20070;-78
2023/06/05 08:40:12;;;;;;;7.47;5.97;;;;;;;28.64;86.53;97772.84;5134188;27;20332;-77
2023/06/05 08:42:38;;;;;;;9.80;6.53;;;;;;;28.85;87.15;97776.41;5115993;27;20023;-78
2023/06/05 08:45:24;;;;;;;8.57;5.90;;;;;;;29.54;83.95;97776.22;5132993;27;20034;-78
2023/06/05 08:47:51;;;;;;;8.93;5.75;;;;;;;30.03;80.21;97776.75;5123710;27;20070;-79
2023/06/05 08:50:16;;;;;;;8.07;5.97;;;;;;;30.04;80.48;97780.38;5132626;27;20458;-77
2023/06/05 08:52:43;;;;;;;9.52;5.78;;;;;;;29.90;82.03;97781.44;5134192;27;20175;-77
2023/06/05 08:55:10;;;;;;;8.05;5.60;;;;;;;31.16;75.32;97790.19;5096045;28;20043;-78
2023/06/05 08:57:38;;;;;;;8.23;5.80;;;;;;;31.80;70.66;97792.00;5127157;27;20050;-78
2023/06/05 09:00:10;;;;;;;10.60;5.43;;;;;;;32.33;62.58;97781.41;5113420;27;20027;-77
2023/06/05 09:02:43;;;;;;;11.70;6.90;;;;;;;34.55;55.83;97810.09;5126663;27;20030;-76
2023/06/05 09:05:09;;;;;;;7.65;5.72;;;;;;;34.05;54.53;97775.47;5132797;27;20023;-77
2023/06/05 09:07:36;;;;;;;7.40;5.75;;;;;;;33.48;54.31;97763.91;5110129;28;20035;-78
2023/06/05 09:10:02;;;;;;;10.98;5.20;;;;;;;31.56;61.15;97732.75;5111780;28;20118;-78
2023/06/05 09:12:28;;;;;;;7.20;5.05;;;;;;;31.63;61.39;97747.41;5095083;28;20084;-78
2023/06/05 09:14:53;;;;;;;10.15;5.22;;;;;;;33.17;56.47;97759.41;5112046;28;20473;-78
2023/06/05 09:17:21;;;;;;;8.02;5.63;;;;;;;33.38;53.62;97758.06;5111616;28;20048;-77
2023/06/05 09:19:47;;;;;;;6.68;5.03;;;;;;;31.36;57.75;97707.13;5127272;27;20491;-77
2023/06/05 09:22:14;;;;;;;6.55;4.90;;;;;;;32.44;55.50;97741.88;5133538;27;20027;-77
2023/06/05 09:24:40;;;;;;;9.13;5.70;;;;;;;33.63;53.50;97760.72;5132315;27;20019;-77
2023/06/05 09:27:08;;;;;;;18.50;8.80;;;;;;;35.12;49.85;97772.28;5133078;27;20470;-77
2023/06/05 09:29:38;;;;;;;7.50;6.05;;;;;;;35.22;48.34;97749.41;5102109;28;20474;-77
2023/06/05 09:32:15;;;;;;;13.98;5.47;;;;;;;35.68;45.94;97740.91;5112102;27;20110;-77
2023/06/05 09:34:41;;;;;;;6.70;4.72;;;;;;;35.78;45.19;97738.28;5132323;27;20084;-77
2023/06/05 09:37:08;;;;;;;6.20;5.05;;;;;;;36.04;43.24;97733.16;5132075;27;20035;-77
2023/06/05 09:39:38;;;;;;;6.85;5.50;;;;;;;34.64;45.82;97716.13;5132216;27;20107;-76
2023/06/05 09:42:04;;;;;;;7.35;5.40;;;;;;;36.26;44.28;97746.13;5114763;27;20027;-77
2023/06/05 09:44:32;;;;;;;6.57;5.60;;;;;;;34.36;46.12;97705.72;5114728;27;20035;-76
2023/06/05 09:47:09;;;;;;;8.98;5.80;;;;;;;31.37;55.33;97691.38;5132044;27;20019;-75
2023/06/05 09:49:40;;;;;;;7.88;5.93;;;;;;;31.83;58.33;97715.97;5129154;27;20434;-76
2023/06/05 09:52:07;;;;;;;;;;;;;;;32.53;57.90;97726.63;5128606;27;20027;-75
2023/06/05 09:54:32;;;;;;;7.63;5.68;;;;;;;32.26;57.41;97711.38;5131655;27;19911;-75
2023/06/05 09:57:03;;;;;;;7.47;5.85;;;;;;;32.08;60.44;97712.19;5125815;27;20031;-73
2023/06/05 09:59:33;;;;;;;6.95;5.90;;;;;;;31.77;60.74;97712.19;5122346;27;20019;-75
2023/06/05 10:02:06;;;;;;;7.75;5.65;;;;;;;32.66;56.19;97721.00;5131540;27;20066;-76
2023/06/05 10:04:42;;;;;;;9.25;5.60;;;;;;;33.20;54.41;97716.50;5104341;27;20053;-76
2023/06/05 10:07:08;;;;;;;9.18;5.80;;;;;;;35.52;47.96;97744.44;5114586;27;20501;-75
2023/06/05 10:09:35;;;;;;;7.35;5.53;;;;;;;36.57;43.01;97736.34;5131434;27;20019;-76
2023/06/05 10:12:01;;;;;;;9.75;5.50;;;;;;;38.42;41.23;97749.22;5131999;27;20042;-77
2023/06/05 10:17:12;;;;;;;9.35;6.00;;;;;;;36.81;43.68;97706.28;5131240;27;20050;-75
2023/06/05 10:19:41;;;;;;;5.85;5.20;;;;;;;37.08;41.99;97703.59;5131137;27;20513;-75
2023/06/05 10:22:07;;;;;;;12.88;9.68;;;;;;;38.23;40.46;97712.41;5131384;27;20102;-76
2023/06/05 10:24:54;;;;;;;11.88;5.43;;;;;;;39.15;39.81;97717.50;5132322;27;20149;-77
2023/06/05 10:27:39;;;;;;;7.57;5.55;;;;;;;37.75;41.80;97692.91;5130924;27;20087;-76
2023/06/05 10:30:36;;;;;;;8.38;5.35;;;;;;;35.24;45.48;97659.03;5123953;27;20027;-77
2023/06/05 10:33:27;;;;;;;9.38;6.07;;;;;;;36.36;46.13;97682.16;5110738;28;20027;-75
2023/06/05 10:36:05;;;;;;;15.43;6.65;;;;;;;36.35;47.12;97693.59;5082447;28;20579;-75
2023/06/05 10:38:32;;;;;;;9.25;6.00;;;;;;;35.95;48.10;97684.53;5129100;27;20035;-74
2023/06/05 10:41:01;;;;;;;8.68;6.40;;;;;;;35.84;46.35;97664.00;5113703;27;20551;-75
2023/06/05 10:43:31;;;;;;;6.85;5.60;;;;;;;37.34;44.69;97692.47;5103504;28;20114;-76
2023/06/05 10:45:59;;;;;;;8.32;5.30;;;;;;;36.80;43.81;97674.75;5124576;27;20062;-75
2023/06/05 10:49:03;;;;;;;6.72;5.47;;;;;;;35.98;43.25;97659.81;5130795;27;20023;-75
2023/06/05 10:51:37;;;;;;;6.47;5.53;;;;;;;35.09;47.11;97664.28;5130546;27;20509;-75
2023/06/05 10:54:03;;;;;;;13.63;6.75;;;;;;;36.42;44.71;97670.00;5114393;28;20026;-75
2023/06/05 10:56:50;;;;;;;10.68;5.72;;;;;;;36.91;43.99;97673.78;5130709;27;20023;-77
2023/06/05 10:59:17;;;;;;;18.92;8.60;;;;;;;38.76;41.81;97691.81;5130625;27;20023;-77
2023/06/05 11:01:42;;;;;;;10.68;6.13;;;;;;;39.35;39.12;97664.38;5127262;28;20039;-76
2023/06/05 11:04:08;;;;;;;17.38;7.55;;;;;;;39.01;38.98;97654.72;5094743;28;20016;-76
2023/06/05 11:06:33;;;;;;;13.27;6.13;;;;;;;37.19;42.20;97625.31;5111306;28;20020;-76
2023/06/05 11:09:28;;;;;;;13.50;5.43;;;;;;;36.18;42.67;97623.09;5111461;28;20034;-79
2023/06/05 11:11:58;;;;;;;15.82;9.52;;;;;;;38.57;38.37;97643.03;5101047;28;20042;-80
2023/06/05 11:14:42;;;;;;;6.10;4.72;;;;;;;38.22;38.64;97626.81;5130550;27;20110;-74
2023/06/05 11:17:30;;;;;;;9.68;5.45;;;;;;;37.31;39.33;97625.16;5104267;28;20064;-75
2023/06/05 11:19:56;;;;;;;11.10;5.20;;;;;;;35.82;42.09;97616.09;5110016;28;20027;-76
2023/06/05 11:22:22;;;;;;;10.70;5.50;;;;;;;34.28;46.93;97623.56;5128238;27;20027;-75
2023/06/05 11:25:17;;;;;;;12.18;5.10;;;;;;;33.37;49.30;97622.38;5135633;27;20031;-75
2023/06/05 11:27:49;;;;;;;7.53;5.35;;;;;;;31.89;54.27;97616.28;5134249;27;20034;-74
2023/06/05 11:30:17;;;;;;;7.88;5.63;;;;;;;31.59;58.97;97635.47;5135809;27;20046;-75